createdAt,value
2017-08-19T00:02:21.846Z,16.00
2017-08-19T00:04:49.330Z,16.00
2017-08-19T00:07:16.850Z,15.90
2017-08-19T00:09:44.339Z,15.90
2017-08-19T00:12:11.851Z,15.90
2017-08-19T00:14:39.340Z,15.80
2017-08-19T00:17:06.856Z,15.80
2017-08-19T00:19:34.347Z,15.70
2017-08-19T00:22:01.831Z,15.70
2017-08-19T00:24:29.347Z,15.60
2017-08-19T00:26:56.833Z,15.70
2017-08-19T00:29:24.326Z,15.60
2017-08-19T00:31:51.802Z,15.60
2017-08-19T00:34:19.296Z,15.50
2017-08-19T00:36:46.786Z,15.40
2017-08-19T00:39:14.279Z,15.30
2017-08-19T00:41:41.775Z,15.30
2017-08-19T00:44:09.258Z,15.20
2017-08-19T00:46:36.761Z,15.20
2017-08-19T00:49:04.234Z,15.20
2017-08-19T00:51:31.758Z,15.30
2017-08-19T00:53:59.538Z,15.20
2017-08-19T00:56:27.054Z,15.30
2017-08-19T00:58:54.568Z,15.20
2017-08-19T01:01:22.074Z,15.20
2017-08-19T01:03:49.565Z,15.10
2017-08-19T01:06:17.095Z,15.20
2017-08-19T01:08:44.587Z,15.10
2017-08-19T01:11:12.097Z,15.10
2017-08-19T01:13:40.530Z,15.10
2017-08-19T01:16:08.013Z,15.10
2017-08-19T01:18:35.510Z,15.10
2017-08-19T01:21:03.004Z,15.10
2017-08-19T01:23:30.510Z,15.10
2017-08-19T01:26:09.780Z,15.00
2017-08-19T01:28:37.290Z,14.90
2017-08-19T01:31:04.787Z,14.90
2017-08-19T01:33:32.289Z,14.80
2017-08-19T01:35:59.794Z,14.80
2017-08-19T01:38:27.279Z,14.80
2017-08-19T01:40:54.779Z,14.70
2017-08-19T01:43:22.266Z,14.70
2017-08-19T01:45:49.771Z,14.60
2017-08-19T01:48:17.262Z,14.60
2017-08-19T01:50:44.759Z,14.50
2017-08-19T01:53:12.237Z,14.40
2017-08-19T01:55:39.754Z,14.40
2017-08-19T01:58:07.238Z,14.30
2017-08-19T02:00:34.750Z,14.30
2017-08-19T02:03:02.343Z,14.30
2017-08-19T02:05:29.862Z,14.20
2017-08-19T02:07:57.352Z,14.10
2017-08-19T02:10:24.891Z,14.10
2017-08-19T02:12:52.386Z,14.10
2017-08-19T02:15:19.899Z,14.10
2017-08-19T02:17:47.398Z,14.10
2017-08-19T02:20:14.905Z,14.10
2017-08-19T02:22:43.301Z,14.10
2017-08-19T02:25:11.738Z,14.10
2017-08-19T02:27:39.248Z,14.00
2017-08-19T02:30:06.758Z,14.10
2017-08-19T02:32:34.246Z,14.10
2017-08-19T02:35:01.755Z,14.10
2017-08-19T02:37:30.182Z,14.10
2017-08-19T02:39:57.694Z,14.10
2017-08-19T02:42:25.211Z,14.10
2017-08-19T02:44:54.685Z,14.10
2017-08-19T02:47:22.166Z,14.10
2017-08-19T02:49:49.682Z,14.10
2017-08-19T02:52:17.196Z,14.10
2017-08-19T02:54:44.687Z,14.10
2017-08-19T02:57:12.199Z,14.10
2017-08-19T02:59:39.691Z,14.10
2017-08-19T03:02:07.390Z,14.00
2017-08-19T03:04:34.914Z,14.00
2017-08-19T03:07:03.414Z,14.00
2017-08-19T03:09:30.937Z,14.00
2017-08-19T03:11:58.422Z,13.90
2017-08-19T03:14:25.918Z,13.90
2017-08-19T03:16:53.427Z,14.00
2017-08-19T03:19:21.872Z,14.00
2017-08-19T03:21:49.379Z,14.00
2017-08-19T03:24:17.782Z,14.00
2017-08-19T03:26:45.271Z,14.00
2017-08-19T03:29:14.763Z,14.00
2017-08-19T03:31:42.288Z,14.00
2017-08-19T03:34:09.785Z,14.00
2017-08-19T03:36:37.303Z,14.00
2017-08-19T03:39:04.795Z,14.00
2017-08-19T03:41:34.249Z,14.00
2017-08-19T03:44:01.738Z,14.00
2017-08-19T03:46:29.239Z,14.00
2017-08-19T03:48:56.728Z,13.90
2017-08-19T03:51:24.237Z,13.90
2017-08-19T03:53:51.728Z,13.90
2017-08-19T03:56:21.173Z,13.90
2017-08-19T03:58:48.662Z,13.90
2017-08-19T04:01:16.166Z,13.90
2017-08-19T04:03:43.704Z,13.90
2017-08-19T04:06:11.199Z,13.90
2017-08-19T04:08:38.717Z,13.90
2017-08-19T04:11:06.202Z,13.90
2017-08-19T04:13:33.690Z,13.90
2017-08-19T04:16:01.194Z,13.90
2017-08-19T04:18:28.688Z,13.90
2017-08-19T04:20:56.199Z,13.80
2017-08-19T04:23:23.690Z,13.80
2017-08-19T04:25:51.174Z,13.80
2017-08-19T04:28:18.682Z,13.70
2017-08-19T04:30:46.194Z,13.70
2017-08-19T04:33:13.686Z,13.70
2017-08-19T04:35:41.204Z,13.60
2017-08-19T04:38:08.798Z,13.60
2017-08-19T04:40:36.302Z,13.50
2017-08-19T04:43:03.786Z,13.50
2017-08-19T04:45:31.286Z,13.50
2017-08-19T04:47:58.801Z,13.40
2017-08-19T04:50:26.295Z,13.40
2017-08-19T04:52:53.818Z,13.40
2017-08-19T04:55:21.309Z,13.40
2017-08-19T04:57:48.798Z,13.40
2017-08-19T05:00:16.299Z,13.30
2017-08-19T05:02:43.781Z,13.30
2017-08-19T05:05:13.218Z,13.30
2017-08-19T05:07:40.715Z,13.40
2017-08-19T05:10:08.214Z,13.40
2017-08-19T05:12:35.702Z,13.30
2017-08-19T05:15:03.224Z,13.30
2017-08-19T05:17:31.665Z,13.30
2017-08-19T05:19:59.192Z,13.30
2017-08-19T05:22:26.687Z,13.40
2017-08-19T05:24:54.205Z,13.40
2017-08-19T05:27:21.686Z,13.40
2017-08-19T05:29:49.201Z,13.40
2017-08-19T05:32:16.694Z,13.40
2017-08-19T05:34:44.211Z,13.40
2017-08-19T05:37:12.634Z,13.40
2017-08-19T05:39:41.089Z,13.40
2017-08-19T05:42:08.622Z,13.50
2017-08-19T05:44:36.128Z,13.50
2017-08-19T05:47:03.695Z,13.60
2017-08-19T05:49:31.192Z,13.60
2017-08-19T05:51:58.699Z,13.70
2017-08-19T05:54:26.210Z,13.80
2017-08-19T05:56:53.702Z,13.90
2017-08-19T05:59:21.210Z,14.00
2017-08-19T06:01:48.710Z,14.10
2017-08-19T06:04:16.219Z,14.10
2017-08-19T06:06:43.730Z,14.20
2017-08-19T06:09:11.230Z,14.30
2017-08-19T06:11:38.720Z,14.40
2017-08-19T06:14:06.218Z,14.40
2017-08-19T06:16:33.710Z,14.40
2017-08-19T06:19:01.227Z,14.50
2017-08-19T06:21:28.743Z,14.60
2017-08-19T06:23:56.284Z,14.60
2017-08-19T06:26:23.780Z,14.70
2017-08-19T06:28:51.286Z,14.70
2017-08-19T06:31:18.771Z,14.70
2017-08-19T06:33:46.294Z,14.80
2017-08-19T06:36:13.774Z,14.80
2017-08-19T06:38:41.279Z,14.90
2017-08-19T06:41:08.771Z,15.00
2017-08-19T06:43:37.151Z,15.00
2017-08-19T06:46:04.699Z,15.00
2017-08-19T06:48:32.190Z,15.10
2017-08-19T06:50:59.703Z,15.20
2017-08-19T06:53:27.195Z,15.20
2017-08-19T06:55:54.715Z,15.30
2017-08-19T06:58:22.228Z,15.30
2017-08-19T07:00:49.734Z,15.30
2017-08-19T07:03:18.178Z,15.30
2017-08-19T07:05:45.711Z,15.40
2017-08-19T07:08:13.199Z,15.40
2017-08-19T07:10:40.701Z,15.40
2017-08-19T07:13:08.195Z,15.40
2017-08-19T07:15:37.643Z,15.50
2017-08-19T07:18:05.146Z,15.50
2017-08-19T07:20:32.674Z,15.60
2017-08-19T07:23:00.164Z,15.60
2017-08-19T07:25:27.657Z,15.60
2017-08-19T07:27:55.142Z,15.60
2017-08-19T07:30:23.555Z,15.70
2017-08-19T07:32:51.058Z,15.70
2017-08-19T07:35:18.547Z,15.80
2017-08-19T07:37:46.041Z,15.90
2017-08-19T07:40:13.530Z,16.10
2017-08-19T07:42:41.014Z,16.10
2017-08-19T07:45:08.530Z,16.10
2017-08-19T07:47:36.027Z,16.10
2017-08-19T07:50:03.546Z,16.10
2017-08-19T07:52:31.062Z,16.20
2017-08-19T07:54:58.739Z,16.20
2017-08-19T07:57:26.433Z,16.20
2017-08-19T07:59:54.342Z,16.20
2017-08-19T08:02:21.847Z,16.20
2017-08-19T08:04:49.394Z,16.40
2017-08-19T08:07:17.719Z,16.40
2017-08-19T08:09:45.238Z,16.50
2017-08-19T08:12:13.665Z,16.50
2017-08-19T08:14:41.175Z,16.60
2017-08-19T08:17:08.692Z,16.60
2017-08-19T08:19:36.175Z,16.60
2017-08-19T08:22:03.708Z,16.70
2017-08-19T08:24:31.194Z,16.70
2017-08-19T08:26:58.737Z,16.80
2017-08-19T08:29:26.226Z,16.70
2017-08-19T08:31:53.764Z,16.80
2017-08-19T08:34:21.264Z,16.80
2017-08-19T08:36:50.732Z,16.80
2017-08-19T08:39:18.222Z,16.90
2017-08-19T08:41:45.735Z,16.80
2017-08-19T08:44:13.235Z,16.80
2017-08-19T08:46:40.739Z,16.90
2017-08-19T08:49:08.224Z,17.10
2017-08-19T08:51:35.749Z,17.20
2017-08-19T08:54:03.263Z,17.20
2017-08-19T08:56:30.803Z,17.20
2017-08-19T08:58:58.430Z,17.20
2017-08-19T09:01:25.936Z,17.20
2017-08-19T09:03:53.420Z,17.30
2017-08-19T09:06:21.960Z,17.40
2017-08-19T09:08:49.459Z,17.60
2017-08-19T09:11:16.947Z,17.60
2017-08-19T09:13:44.438Z,17.50
2017-08-19T09:16:11.918Z,17.60
2017-08-19T09:18:41.370Z,17.70
2017-08-19T09:21:08.853Z,17.90
2017-08-19T09:23:36.647Z,17.70
2017-08-19T09:26:04.163Z,17.90
2017-08-19T09:28:31.655Z,17.90
2017-08-19T09:30:59.151Z,17.90
2017-08-19T09:33:26.666Z,18.10
2017-08-19T09:35:54.158Z,18.30
2017-08-19T09:38:21.667Z,18.20
2017-08-19T09:40:49.157Z,18.20
2017-08-19T09:43:16.700Z,18.10
2017-08-19T09:45:44.202Z,18.10
2017-08-19T09:48:11.711Z,18.20
2017-08-19T09:50:39.195Z,18.30
2017-08-19T09:53:06.703Z,18.30
2017-08-19T09:55:34.170Z,18.30
2017-08-19T09:58:01.658Z,18.10
2017-08-19T10:00:29.226Z,18.10
2017-08-19T10:02:56.718Z,18.40
2017-08-19T10:05:24.217Z,18.50
2017-08-19T10:07:51.739Z,18.40
2017-08-19T10:10:30.918Z,18.40
2017-08-19T10:12:58.434Z,18.30
2017-08-19T10:15:27.000Z,18.50
2017-08-19T10:17:54.548Z,18.40
2017-08-19T10:20:22.105Z,18.30
2017-08-19T10:22:49.614Z,18.30
2017-08-19T10:25:19.062Z,18.40
2017-08-19T10:27:46.554Z,18.50
2017-08-19T10:30:15.975Z,18.70
2017-08-19T10:32:43.456Z,18.90
2017-08-19T10:35:11.827Z,19.00
2017-08-19T10:37:40.321Z,19.00
2017-08-19T10:40:07.890Z,19.00
2017-08-19T10:42:35.381Z,19.00
2017-08-19T10:45:02.875Z,19.20
2017-08-19T10:47:32.323Z,19.30
2017-08-19T10:49:59.806Z,19.40
2017-08-19T10:52:27.324Z,19.30
2017-08-19T10:54:54.800Z,19.10
2017-08-19T10:57:23.185Z,19.20
2017-08-19T10:59:50.683Z,19.10
2017-08-19T11:02:18.161Z,19.20
2017-08-19T11:04:45.655Z,19.20
2017-08-19T11:07:14.122Z,19.20
2017-08-19T11:09:41.687Z,19.50
2017-08-19T11:12:09.167Z,19.90
2017-08-19T11:14:36.717Z,20.10
2017-08-19T11:17:04.218Z,20.10
2017-08-19T11:19:31.722Z,20.30
2017-08-19T11:21:59.275Z,20.50
2017-08-19T11:24:26.803Z,20.70
2017-08-19T11:26:56.236Z,21.00
2017-08-19T11:29:23.720Z,20.90
2017-08-19T11:31:51.250Z,20.90
2017-08-19T11:34:19.679Z,20.50
2017-08-19T11:36:47.180Z,20.20
2017-08-19T11:39:14.664Z,20.20
2017-08-19T11:41:43.262Z,20.30
2017-08-19T11:44:10.774Z,20.40
2017-08-19T11:46:38.270Z,20.50
2017-08-19T11:49:06.380Z,20.60
2017-08-19T11:51:33.934Z,20.30
2017-08-19T11:54:01.468Z,20.10
2017-08-19T11:56:29.983Z,20.10
2017-08-19T11:58:57.536Z,20.10
2017-08-19T12:01:25.045Z,20.10
2017-08-19T12:03:52.563Z,20.00
2017-08-19T12:06:20.062Z,20.10
2017-08-19T12:08:47.593Z,20.30
2017-08-19T12:11:17.113Z,20.60
2017-08-19T12:13:44.647Z,20.70
2017-08-19T12:16:12.211Z,20.80
2017-08-19T12:18:39.713Z,20.60
2017-08-19T12:21:09.760Z,20.60
2017-08-19T12:23:37.307Z,21.00
2017-08-19T12:26:06.797Z,21.20
2017-08-19T12:28:34.336Z,21.20
2017-08-19T12:31:01.994Z,21.10
2017-08-19T12:33:29.547Z,21.00
2017-08-19T12:35:57.027Z,21.10
2017-08-19T12:38:24.531Z,21.20
2017-08-19T12:40:52.202Z,21.10
2017-08-19T12:43:19.779Z,21.10
2017-08-19T12:45:47.271Z,21.00
2017-08-19T12:48:15.803Z,20.90
2017-08-19T12:50:43.654Z,21.00
2017-08-19T12:53:11.247Z,20.90
2017-08-19T12:55:39.563Z,20.60
2017-08-19T12:58:07.091Z,20.60
2017-08-19T13:00:34.583Z,20.60
2017-08-19T13:03:03.200Z,20.70
2017-08-19T13:05:30.684Z,20.70
2017-08-19T13:07:58.215Z,20.60
2017-08-19T13:10:25.694Z,20.60
2017-08-19T13:12:53.214Z,20.60
2017-08-19T13:15:21.667Z,20.60
2017-08-19T13:17:49.350Z,20.60
2017-08-19T13:20:18.815Z,21.10
2017-08-19T13:22:47.084Z,21.40
2017-08-19T13:25:14.606Z,21.50
2017-08-19T13:27:42.267Z,21.90
2017-08-19T13:30:11.715Z,22.10
2017-08-19T13:32:39.223Z,22.00
2017-08-19T13:35:06.722Z,22.00
2017-08-19T13:37:34.370Z,21.90
2017-08-19T13:40:01.907Z,21.90
2017-08-19T13:42:31.446Z,21.80
2017-08-19T13:44:58.970Z,22.00
2017-08-19T13:47:26.475Z,21.90
2017-08-19T13:49:53.967Z,21.80
2017-08-19T13:52:22.454Z,21.90
2017-08-19T13:54:49.954Z,21.80
2017-08-19T13:57:17.510Z,21.60
2017-08-19T13:59:44.986Z,21.40
2017-08-19T14:02:12.498Z,21.40
2017-08-19T14:04:39.981Z,21.50
2017-08-19T14:07:07.494Z,21.30
2017-08-19T14:09:35.931Z,21.30
2017-08-19T14:12:03.442Z,21.40
2017-08-19T14:14:30.931Z,21.60
2017-08-19T14:16:58.446Z,21.80
2017-08-19T14:19:25.935Z,21.90
2017-08-19T14:21:53.436Z,21.90
2017-08-19T14:24:20.915Z,22.00
2017-08-19T14:26:48.415Z,21.90
2017-08-19T14:29:16.842Z,21.80
2017-08-19T14:31:44.390Z,21.60
2017-08-19T14:34:11.883Z,21.90
2017-08-19T14:36:39.414Z,22.00
2017-08-19T14:39:07.866Z,22.10
2017-08-19T14:41:35.385Z,22.10
2017-08-19T14:44:02.914Z,21.70
2017-08-19T14:46:30.467Z,21.40
2017-08-19T14:48:57.952Z,21.40
2017-08-19T14:51:25.456Z,21.40
2017-08-19T14:53:52.951Z,21.50
2017-08-19T14:56:20.469Z,21.80
2017-08-19T14:58:48.918Z,21.80
2017-08-19T15:01:17.355Z,21.80
2017-08-19T15:03:44.838Z,21.70
2017-08-19T15:06:12.330Z,21.70
2017-08-19T15:08:39.821Z,21.70
2017-08-19T15:11:07.330Z,21.90
2017-08-19T15:13:34.828Z,21.90
2017-08-19T15:16:02.358Z,21.90
2017-08-19T15:18:29.863Z,21.70
2017-08-19T15:20:57.358Z,21.70
2017-08-19T15:23:24.934Z,21.80
2017-08-19T15:25:52.483Z,21.70
2017-08-19T15:28:20.035Z,21.50
2017-08-19T15:30:48.466Z,21.40
2017-08-19T15:33:16.923Z,21.30
2017-08-19T15:35:44.407Z,21.40
2017-08-19T15:38:11.919Z,21.50
2017-08-19T15:40:39.414Z,21.30
2017-08-19T15:43:07.752Z,21.00
2017-08-19T15:45:36.317Z,20.80
2017-08-19T15:48:03.831Z,20.60
2017-08-19T15:50:31.367Z,20.50
2017-08-19T15:52:58.874Z,20.60
2017-08-19T15:55:26.366Z,20.70
2017-08-19T15:57:53.866Z,20.80
2017-08-19T16:00:21.351Z,21.00
2017-08-19T16:02:48.847Z,20.90
2017-08-19T16:05:16.339Z,21.00
2017-08-19T16:07:43.861Z,21.00
2017-08-19T16:10:12.306Z,21.00
2017-08-19T16:12:39.819Z,20.90
2017-08-19T16:15:07.307Z,20.90
2017-08-19T16:17:34.809Z,21.10
2017-08-19T16:20:02.280Z,21.00
2017-08-19T16:22:29.800Z,21.00
2017-08-19T16:24:57.295Z,20.90
2017-08-19T16:27:24.791Z,20.80
2017-08-19T16:29:52.278Z,20.80
2017-08-19T16:32:19.790Z,20.80
2017-08-19T16:34:47.294Z,20.70
2017-08-19T16:37:14.811Z,20.60
2017-08-19T16:39:42.299Z,20.60
2017-08-19T16:42:10.759Z,20.40
2017-08-19T16:44:38.298Z,20.30
2017-08-19T16:47:05.799Z,20.30
2017-08-19T16:49:33.279Z,20.20
2017-08-19T16:52:00.786Z,20.30
2017-08-19T16:54:28.306Z,20.40
2017-08-19T16:56:57.763Z,20.60
2017-08-19T16:59:25.291Z,20.70
2017-08-19T17:01:52.778Z,20.70
2017-08-19T17:04:20.277Z,20.60
2017-08-19T17:06:47.799Z,20.50
2017-08-19T17:09:15.288Z,20.50
2017-08-19T17:11:43.790Z,20.30
2017-08-19T17:14:11.287Z,20.30
2017-08-19T17:16:38.932Z,20.20
2017-08-19T17:19:06.475Z,20.20
2017-08-19T17:21:33.992Z,20.10
2017-08-19T17:24:01.518Z,20.10
2017-08-19T17:26:28.997Z,20.10
2017-08-19T17:28:56.491Z,20.00
2017-08-19T17:31:23.980Z,19.90
2017-08-19T17:33:51.497Z,19.90
2017-08-19T17:36:18.973Z,19.90
2017-08-19T17:38:46.470Z,20.00
2017-08-19T17:41:13.980Z,20.00
2017-08-19T17:43:41.492Z,20.10
2017-08-19T17:46:09.000Z,20.00
2017-08-19T17:48:38.433Z,20.00
2017-08-19T17:51:05.930Z,19.90
2017-08-19T17:53:34.423Z,19.90
2017-08-19T17:56:02.026Z,19.90
2017-08-19T17:58:29.575Z,19.90
2017-08-19T18:00:57.088Z,19.70
2017-08-19T18:03:24.586Z,19.50
2017-08-19T18:05:52.091Z,19.40
2017-08-19T18:08:19.696Z,19.30
2017-08-19T18:10:47.201Z,19.20
2017-08-19T18:13:14.747Z,19.00
2017-08-19T18:15:42.278Z,18.80
2017-08-19T18:18:09.934Z,18.80
2017-08-19T18:20:37.506Z,18.70
2017-08-19T18:23:05.227Z,18.70
2017-08-19T18:25:32.821Z,18.70
2017-08-19T18:28:00.403Z,18.60
2017-08-19T18:30:28.114Z,18.50
2017-08-19T18:32:55.749Z,18.50
2017-08-19T18:35:24.575Z,18.40
2017-08-19T18:37:52.143Z,18.30
2017-08-19T18:40:19.770Z,18.20
2017-08-19T18:42:48.342Z,18.10
2017-08-19T18:45:16.846Z,18.10
2017-08-19T18:47:44.408Z,18.00
2017-08-19T18:50:11.968Z,18.00
2017-08-19T18:52:39.501Z,18.00
2017-08-19T18:55:07.082Z,18.00
2017-08-19T18:57:36.566Z,17.90
2017-08-19T19:00:04.214Z,17.80
2017-08-19T19:02:31.761Z,17.60
2017-08-19T19:04:59.307Z,17.50
2017-08-19T19:07:26.898Z,17.20
2017-08-19T19:09:54.477Z,17.10
2017-08-19T19:12:22.134Z,16.90
2017-08-19T19:14:49.697Z,16.90
2017-08-19T19:17:17.228Z,16.90
2017-08-19T19:19:44.834Z,16.80
2017-08-19T19:22:12.497Z,16.70
2017-08-19T19:24:43.346Z,16.70
2017-08-19T19:27:10.993Z,16.70
2017-08-19T19:29:38.567Z,16.60
2017-08-19T19:32:06.105Z,16.50
2017-08-19T19:34:34.014Z,16.50
2017-08-19T19:37:01.600Z,16.50
2017-08-19T19:39:29.136Z,16.50
2017-08-19T19:41:56.732Z,16.40
2017-08-19T19:44:24.283Z,16.30
2017-08-19T19:46:51.804Z,16.20
2017-08-19T19:49:19.350Z,16.10
2017-08-19T19:51:49.682Z,16.00
2017-08-19T19:54:17.408Z,15.90
2017-08-19T19:56:45.558Z,15.70
2017-08-19T19:59:13.171Z,15.70
2017-08-19T20:01:40.730Z,15.80
2017-08-19T20:04:08.267Z,15.80
2017-08-19T20:06:37.796Z,15.80
2017-08-19T20:09:05.390Z,15.80
2017-08-19T20:11:32.967Z,15.80
2017-08-19T20:14:01.776Z,15.70
2017-08-19T20:16:29.364Z,15.60
2017-08-19T20:18:56.968Z,15.50
2017-08-19T20:21:24.583Z,15.50
2017-08-19T20:23:52.192Z,15.50
2017-08-19T20:26:19.781Z,15.40
2017-08-19T20:28:47.387Z,15.40
2017-08-19T20:31:14.989Z,15.40
2017-08-19T20:33:42.548Z,15.40
2017-08-19T20:36:10.149Z,15.30
2017-08-19T20:38:38.750Z,15.40
2017-08-19T20:41:06.296Z,15.40
2017-08-19T20:43:33.854Z,15.30
2017-08-19T20:46:02.411Z,15.20
2017-08-19T20:48:29.961Z,15.10
2017-08-19T20:50:57.522Z,15.10
2017-08-19T20:53:25.116Z,15.00
2017-08-19T20:55:52.718Z,15.00
2017-08-19T20:58:20.307Z,15.10
2017-08-19T21:00:47.865Z,15.20
2017-08-19T21:03:15.692Z,15.20
2017-08-19T21:05:43.311Z,15.10
2017-08-19T21:08:11.289Z,15.10
2017-08-19T21:10:38.924Z,15.10
2017-08-19T21:13:06.544Z,15.20
2017-08-19T21:15:34.097Z,15.10
2017-08-19T21:18:02.624Z,15.10
2017-08-19T21:20:31.302Z,15.00
2017-08-19T21:22:58.943Z,14.90
2017-08-19T21:25:27.515Z,14.80
2017-08-19T21:27:57.073Z,14.70
2017-08-19T21:30:24.681Z,14.60
2017-08-19T21:32:53.099Z,14.50
2017-08-19T21:35:20.706Z,14.50
2017-08-19T21:37:48.264Z,14.40
2017-08-19T21:40:15.836Z,14.50
2017-08-19T21:42:43.641Z,14.50
2017-08-19T21:45:11.251Z,14.50
2017-08-19T21:47:38.852Z,14.50
2017-08-19T21:50:06.413Z,14.50
2017-08-19T21:52:33.955Z,14.50
2017-08-19T21:55:03.507Z,14.50
2017-08-19T21:57:31.142Z,14.50
2017-08-19T21:59:58.720Z,14.50
2017-08-19T22:02:26.268Z,14.50
2017-08-19T22:04:53.827Z,14.50
2017-08-19T22:07:21.361Z,14.40
2017-08-19T22:09:48.927Z,14.50
2017-08-19T22:12:16.523Z,14.50
2017-08-19T22:14:44.077Z,14.50
2017-08-19T22:17:11.566Z,14.40
2017-08-19T22:19:40.106Z,14.50
2017-08-19T22:22:17.267Z,14.50
2017-08-19T22:24:45.636Z,14.40
2017-08-19T22:27:13.206Z,14.40
2017-08-19T22:29:40.758Z,14.40
2017-08-19T22:32:09.275Z,14.30
2017-08-19T22:34:38.784Z,14.40
2017-08-19T22:37:06.331Z,14.40
2017-08-19T22:39:33.899Z,14.30
2017-08-19T22:42:01.426Z,14.30
2017-08-19T22:44:28.971Z,14.40
2017-08-19T22:46:56.528Z,14.40
2017-08-19T22:49:24.153Z,14.40
2017-08-19T22:51:51.682Z,14.40
2017-08-19T22:54:19.216Z,14.40
2017-08-19T22:56:46.745Z,14.40
2017-08-19T22:59:14.282Z,14.30
2017-08-19T23:01:41.915Z,14.20
2017-08-19T23:04:10.368Z,14.20
2017-08-19T23:06:37.980Z,14.10
2017-08-19T23:09:05.555Z,14.10
2017-08-19T23:11:35.056Z,14.10
2017-08-19T23:14:02.585Z,14.10
2017-08-19T23:16:30.182Z,14.00
2017-08-19T23:18:57.855Z,14.00
2017-08-19T23:21:25.449Z,14.00
2017-08-19T23:23:53.002Z,13.90
2017-08-19T23:26:20.596Z,13.70
2017-08-19T23:28:48.155Z,13.50
2017-08-19T23:31:15.759Z,13.40
2017-08-19T23:33:44.234Z,13.40
2017-08-19T23:36:11.839Z,13.50
2017-08-19T23:38:39.493Z,13.50
2017-08-19T23:41:07.026Z,13.40
2017-08-19T23:43:34.642Z,13.40
2017-08-19T23:46:02.171Z,13.40
2017-08-19T23:48:29.770Z,13.30
2017-08-19T23:50:57.288Z,13.30
2017-08-19T23:53:24.901Z,13.20
2017-08-19T23:55:52.503Z,13.20
2017-08-19T23:58:20.010Z,13.30
